Terminal Aerodrome Forecast
Issued by NWS

Home | Current Version | Previous Version | Graphics & Text | Print | Product List | Glossary On
Versions: 1 2 3 4 5 6 7 8 9 10 11 12 13 14 15
000
FTUS45 KGGW 291700
TAFSDY
TAF
KSDY 291727Z 2918/3018 10008KT P6SM -SHRA OVC015
     FM292200 12014KT 6SM -SHRA OVC015
     FM300600 VRB05KT P6SM -SHRA OVC008
      TEMPO 3008/3012 4SM -RA OVC007
      AMD LTD TO CLD VIS AND WIND=

USA.gov is the U.S. government's official web portal to all federal, state and local government web resources and services.